Time,TemperatureF,DewpointF,PressureIn,WindDirection,WindDirectionDegrees,WindSpeedMPH,WindSpeedGustMPH,Humidity,HourlyPrecipIn,Conditions,Clouds,dailyrainin,SoftwareType,DateUTC
2013-01-08 00:29:00,28.0,24.0,30.25,ESE,104,0.0,-999.0,85,-99.99,,,0.00,weatherlink.com 1.10,2013-01-08 05:29:00,
2013-01-08 00:44:00,27.6,24.0,30.25,ESE,104,0.0,-999.0,86,-99.99,,,0.00,weatherlink.com 1.10,2013-01-08 05:44:00,
2013-01-08 00:59:00,27.2,24.0,30.25,ESE,104,0.0,-999.0,86,-99.99,,,0.00,weatherlink.com 1.10,2013-01-08 05:59:00,
2013-01-08 01:14:00,27.2,24.0,30.25,ESE,104,0.0,-999.0,86,-99.99,,,0.00,weatherlink.com 1.10,2013-01-08 06:14:00,
2013-01-08 01:29:00,26.9,24.0,30.25,ESE,104,0.0,-999.0,87,-99.99,,,0.00,weatherlink.com 1.10,2013-01-08 06:29:00,
2013-01-08 01:48:00,27.6,24.0,30.25,ESE,104,0.0,-999.0,87,-99.99,,,0.00,weatherlink.com 1.10,2013-01-08 06:48:00,
2013-01-08 01:59:00,27.6,24.0,30.26,ESE,104,0.0,-999.0,87,-99.99,,,0.00,weatherlink.com 1.10,2013-01-08 06:59:00,
2013-01-08 02:14:00,27.1,24.0,30.26,ESE,104,0.0,-999.0,87,-99.99,,,0.00,weatherlink.com 1.10,2013-01-08 07:14:00,
2013-01-08 02:29:00,26.7,23.0,30.27,ESE,104,0.0,-999.0,87,-99.99,,,0.00,weatherlink.com 1.10,2013-01-08 07:29:00,
2013-01-08 02:44:00,26.1,23.0,30.27,ESE,104,0.0,-999.0,87,-99.99,,,0.00,weatherlink.com 1.10,2013-01-08 07:44:00,
2013-01-08 02:59:00,25.9,23.0,30.27,ESE,104,0.0,-999.0,88,-99.99,,,0.00,weatherlink.com 1.10,2013-01-08 07:59:00,
2013-01-08 03:14:00,25.8,23.0,30.28,ESE,104,0.0,-999.0,89,-99.99,,,0.00,weatherlink.com 1.10,2013-01-08 08:14:00,
2013-01-08 03:29:00,25.9,23.0,30.27,ESE,104,0.0,-999.0,89,-99.99,,,0.00,weatherlink.com 1.10,2013-01-08 08:29:00,
2013-01-08 03:44:00,25.6,23.0,30.27,ESE,104,0.0,-999.0,89,-99.99,,,0.00,weatherlink.com 1.10,2013-01-08 08:44:00,
2013-01-08 03:59:00,25.3,23.0,30.27,ESE,104,0.0,-999.0,89,-99.99,,,0.00,weatherlink.com 1.10,2013-01-08 08:59:00,
2013-01-08 04:14:00,25.3,23.0,30.27,ESE,104,0.0,-999.0,90,-99.99,,,0.00,weatherlink.com 1.10,2013-01-08 09:14:00,
2013-01-08 04:29:00,25.1,22.0,30.27,ESE,104,0.0,-999.0,89,-99.99,,,0.00,weatherlink.com 1.10,2013-01-08 09:29:00,
2013-01-08 04:44:00,25.0,23.0,30.27,ESE,104,0.0,-999.0,90,-99.99,,,0.00,weatherlink.com 1.10,2013-01-08 09:44:00,
2013-01-08 04:59:00,24.9,22.0,30.28,ESE,104,0.0,-999.0,90,-99.99,,,0.00,weatherlink.com 1.10,2013-01-08 09:59:00,
2013-01-08 05:14:00,24.8,22.0,30.28,ESE,104,0.0,-999.0,90,-99.99,,,0.00,weatherlink.com 1.10,2013-01-08 10:14:00,
2013-01-08 05:29:00,24.6,22.0,30.29,ESE,104,0.0,-999.0,90,-99.99,,,0.00,weatherlink.com 1.10,2013-01-08 10:29:00,
2013-01-08 05:44:00,24.4,22.0,30.29,ESE,104,0.0,-999.0,90,-99.99,,,0.00,weatherlink.com 1.10,2013-01-08 10:44:00,
2013-01-08 05:59:00,24.5,22.0,30.30,ESE,104,0.0,-999.0,91,-99.99,,,0.00,weatherlink.com 1.10,2013-01-08 10:59:00,
2013-01-08 06:14:00,25.4,23.0,30.29,ESE,104,0.0,-999.0,91,-99.99,,,0.00,weatherlink.com 1.10,2013-01-08 11:14:00,
2013-01-08 06:29:00,25.7,24.0,30.30,ESE,104,0.0,-999.0,91,-99.99,,,0.00,weatherlink.com 1.10,2013-01-08 11:29:00,
2013-01-08 06:44:00,26.4,24.0,30.30,ESE,104,0.0,-999.0,91,-99.99,,,0.00,weatherlink.com 1.10,2013-01-08 11:44:00,
2013-01-08 06:59:00,26.4,24.0,30.31,ESE,104,0.0,-999.0,90,-99.99,,,0.00,weatherlink.com 1.10,2013-01-08 11:59:00,
2013-01-08 07:14:00,25.9,23.0,30.31,ESE,104,0.0,-999.0,90,-99.99,,,0.00,weatherlink.com 1.10,2013-01-08 12:14:00,
2013-01-08 07:29:00,26.2,24.0,30.32,ESE,104,0.0,-999.0,90,-99.99,,,0.00,weatherlink.com 1.10,2013-01-08 12:29:00,
2013-01-08 07:44:00,26.6,24.0,30.33,ESE,104,0.0,-999.0,90,-99.99,,,0.00,weatherlink.com 1.10,2013-01-08 12:44:00,
2013-01-08 07:59:00,26.3,24.0,30.33,ESE,104,0.0,-999.0,90,-99.99,,,0.00,weatherlink.com 1.10,2013-01-08 12:59:00,
2013-01-08 08:14:00,27.0,25.0,30.34,ESE,104,0.0,-999.0,91,-99.99,,,0.00,weatherlink.com 1.10,2013-01-08 13:14:00,
2013-01-08 08:29:00,26.9,25.0,30.35,ESE,104,0.0,-999.0,91,-99.99,,,0.00,weatherlink.com 1.10,2013-01-08 13:29:00,
2013-01-08 08:44:00,27.7,26.0,30.35,ESE,104,0.0,-999.0,91,-99.99,,,0.00,weatherlink.com 1.10,2013-01-08 13:44:00,
2013-01-08 09:00:00,29.7,28.0,30.36,ESE,104,0.0,-999.0,92,-99.99,,,0.00,weatherlink.com 1.10,2013-01-08 14:00:00,
2013-01-08 09:15:00,30.8,28.0,30.36,ESE,104,0.0,-999.0,90,-99.99,,,0.00,weatherlink.com 1.10,2013-01-08 14:15:00,
2013-01-08 09:30:00,31.8,29.0,30.36,ESE,104,0.0,-999.0,89,-99.99,,,0.00,weatherlink.com 1.10,2013-01-08 14:30:00,
2013-01-08 09:45:00,34.0,31.0,30.37,ESE,104,0.0,-999.0,89,-99.99,,,0.00,weatherlink.com 1.10,2013-01-08 14:45:00,
2013-01-08 10:00:00,35.9,32.0,30.37,ESE,104,0.0,-999.0,85,-99.99,,,0.00,weatherlink.com 1.10,2013-01-08 15:00:00,
2013-01-08 10:15:00,38.9,33.0,30.36,ESE,108,0.0,-999.0,79,-99.99,,,0.00,weatherlink.com 1.10,2013-01-08 15:15:00,
2013-01-08 10:30:00,41.5,33.0,30.36,ESE,119,0.0,-999.0,72,-99.99,,,0.00,weatherlink.com 1.10,2013-01-08 15:30:00,
2013-01-08 10:45:00,43.6,34.0,30.36,SE,134,0.0,-999.0,68,-99.99,,,0.00,weatherlink.com 1.10,2013-01-08 15:45:00,
2013-01-08 11:00:00,45.7,33.0,30.36,SE,138,0.0,-999.0,61,-99.99,,,0.00,weatherlink.com 1.10,2013-01-08 16:00:00,
2013-01-08 11:15:00,47.6,33.0,30.35,SSE,153,0.0,-999.0,57,-99.99,,,0.00,weatherlink.com 1.10,2013-01-08 16:15:00,
2013-01-08 11:30:00,49.2,33.0,30.34,SSE,148,6.0,-999.0,55,-99.99,,,0.00,weatherlink.com 1.10,2013-01-08 16:30:00,
2013-01-08 11:45:00,50.5,33.0,30.33,South,175,1.0,-999.0,52,-99.99,,,0.00,weatherlink.com 1.10,2013-01-08 16:45:00,
2013-01-08 12:00:00,51.1,32.0,30.33,SW,222,7.0,-999.0,48,-99.99,,,0.00,weatherlink.com 1.10,2013-01-08 17:00:00,
2013-01-08 12:15:00,51.7,32.0,30.32,WSW,250,7.0,-999.0,47,-99.99,,,0.00,weatherlink.com 1.10,2013-01-08 17:15:00,
2013-01-08 12:30:00,51.7,32.0,30.31,WSW,250,4.0,-999.0,48,-99.99,,,0.00,weatherlink.com 1.10,2013-01-08 17:30:00,
2013-01-08 12:45:00,52.2,33.0,30.30,WSW,240,0.0,-999.0,49,-99.99,,,0.00,weatherlink.com 1.10,2013-01-08 17:45:00,
2013-01-08 13:00:00,52.8,33.0,30.29,WSW,244,9.0,-999.0,48,-99.99,,,0.00,weatherlink.com 1.10,2013-01-08 18:00:00,
2013-01-08 13:15:00,54.0,34.0,30.29,SSW,192,1.0,-999.0,47,-99.99,,,0.00,weatherlink.com 1.10,2013-01-08 18:15:00,
2013-01-08 13:30:00,53.9,33.0,30.29,SSW,192,6.0,-999.0,46,-99.99,,,0.00,weatherlink.com 1.10,2013-01-08 18:30:00,
2013-01-08 13:46:00,53.4,34.0,30.27,SW,224,4.0,-999.0,48,-99.99,,,0.00,weatherlink.com 1.10,2013-01-08 18:46:00,
2013-01-08 14:01:00,54.8,34.0,30.27,SW,236,6.0,-999.0,45,-99.99,,,0.00,weatherlink.com 1.10,2013-01-08 19:01:00,
2013-01-08 14:16:00,54.6,33.0,30.27,South,184,8.0,-999.0,45,-99.99,,,0.00,weatherlink.com 1.10,2013-01-08 19:16:00,
2013-01-08 14:31:00,54.9,34.0,30.27,WSW,250,3.0,-999.0,46,-99.99,,,0.00,weatherlink.com 1.10,2013-01-08 19:31:00,
2013-01-08 14:46:00,55.1,34.0,30.27,WSW,250,6.0,-999.0,45,-99.99,,,0.00,weatherlink.com 1.10,2013-01-08 19:46:00,
2013-01-08 15:01:00,55.5,34.0,30.26,West,275,3.0,-999.0,44,-99.99,,,0.00,weatherlink.com 1.10,2013-01-08 20:01:00,
2013-01-08 15:16:00,56.2,34.0,30.26,WSW,239,6.0,-999.0,43,-99.99,,,0.00,weatherlink.com 1.10,2013-01-08 20:16:00,
2013-01-08 15:31:00,55.7,34.0,30.26,WSW,246,3.0,-999.0,45,-99.99,,,0.00,weatherlink.com 1.10,2013-01-08 20:31:00,
2013-01-08 15:46:00,55.9,34.0,30.26,West,263,1.0,-999.0,44,-99.99,,,0.00,weatherlink.com 1.10,2013-01-08 20:46:00,
2013-01-08 16:01:00,55.8,34.0,30.25,West,271,6.0,-999.0,44,-99.99,,,0.00,weatherlink.com 1.10,2013-01-08 21:01:00,
2013-01-08 16:16:00,55.7,34.0,30.25,WSW,257,6.0,-999.0,45,-99.99,,,0.00,weatherlink.com 1.10,2013-01-08 21:16:00,
2013-01-08 16:31:00,55.6,34.0,30.25,West,273,2.0,-999.0,45,-99.99,,,0.00,weatherlink.com 1.10,2013-01-08 21:31:00,
2013-01-08 16:46:00,55.6,34.0,30.25,West,273,2.0,-999.0,45,-99.99,,,0.00,weatherlink.com 1.10,2013-01-08 21:46:00,
2013-01-08 17:01:00,54.4,34.0,30.25,West,273,0.0,-999.0,47,-99.99,,,0.00,weatherlink.com 1.10,2013-01-08 22:01:00,
2013-01-08 17:16:00,53.0,34.0,30.25,West,273,0.0,-999.0,49,-99.99,,,0.00,weatherlink.com 1.10,2013-01-08 22:16:00,
2013-01-08 17:31:00,50.5,34.0,30.25,West,273,0.0,-999.0,53,-99.99,,,0.00,weatherlink.com 1.10,2013-01-08 22:31:00,
2013-01-08 17:46:00,48.5,33.0,30.25,West,273,0.0,-999.0,56,-99.99,,,0.00,weatherlink.com 1.10,2013-01-08 22:46:00,
2013-01-08 18:01:00,46.4,33.0,30.24,West,273,0.0,-999.0,60,-99.99,,,0.00,weatherlink.com 1.10,2013-01-08 23:01:00,
2013-01-08 18:16:00,44.6,33.0,30.25,West,273,0.0,-999.0,64,-99.99,,,0.00,weatherlink.com 1.10,2013-01-08 23:16:00,
2013-01-08 18:31:00,43.1,33.0,30.25,West,273,0.0,-999.0,67,-99.99,,,0.00,weatherlink.com 1.10,2013-01-08 23:31:00,
2013-01-08 18:46:00,41.9,33.0,30.25,West,273,0.0,-999.0,70,-99.99,,,0.00,weatherlink.com 1.10,2013-01-08 23:46:00,
2013-01-08 19:01:00,40.9,33.0,30.25,West,273,0.0,-999.0,73,-99.99,,,0.00,weatherlink.com 1.10,2013-01-09 00:01:00,
2013-01-08 19:16:00,40.3,33.0,30.25,West,273,0.0,-999.0,75,-99.99,,,0.00,weatherlink.com 1.10,2013-01-09 00:16:00,
2013-01-08 19:31:00,39.6,33.0,30.25,West,273,0.0,-999.0,76,-99.99,,,0.00,weatherlink.com 1.10,2013-01-09 00:31:00,
2013-01-08 19:46:00,39.0,33.0,30.26,West,273,0.0,-999.0,78,-99.99,,,0.00,weatherlink.com 1.10,2013-01-09 00:46:00,
2013-01-08 20:01:00,38.8,33.0,30.26,West,273,0.0,-999.0,78,-99.99,,,0.00,weatherlink.com 1.10,2013-01-09 01:01:00,
2013-01-08 20:16:00,38.8,33.0,30.25,West,273,0.0,-999.0,79,-99.99,,,0.00,weatherlink.com 1.10,2013-01-09 01:16:00,
2013-01-08 20:31:00,38.7,33.0,30.25,West,273,0.0,-999.0,79,-99.99,,,0.00,weatherlink.com 1.10,2013-01-09 01:31:00,
2013-01-08 20:46:00,38.7,33.0,30.24,West,273,0.0,-999.0,80,-99.99,,,0.00,weatherlink.com 1.10,2013-01-09 01:46:00,
2013-01-08 21:01:00,38.5,33.0,30.24,West,273,0.0,-999.0,79,-99.99,,,0.00,weatherlink.com 1.10,2013-01-09 02:01:00,
2013-01-08 21:16:00,38.3,33.0,30.25,West,273,0.0,-999.0,81,-99.99,,,0.00,weatherlink.com 1.10,2013-01-09 02:16:00,
2013-01-08 21:31:00,38.4,33.0,30.25,West,273,0.0,-999.0,81,-99.99,,,0.00,weatherlink.com 1.10,2013-01-09 02:31:00,
2013-01-08 21:46:00,38.2,33.0,30.24,West,273,0.0,-999.0,82,-99.99,,,0.00,weatherlink.com 1.10,2013-01-09 02:46:00,
2013-01-08 22:01:00,38.2,33.0,30.24,West,273,0.0,-999.0,82,-99.99,,,0.00,weatherlink.com 1.10,2013-01-09 03:01:00,
2013-01-08 22:16:00,38.2,34.0,30.25,West,273,0.0,-999.0,83,-99.99,,,0.00,weatherlink.com 1.10,2013-01-09 03:16:00,
2013-01-08 22:31:00,38.1,33.0,30.25,West,273,0.0,-999.0,83,-99.99,,,0.00,weatherlink.com 1.10,2013-01-09 03:31:00,
2013-01-08 22:46:00,38.6,34.0,30.25,West,273,0.0,-999.0,84,-99.99,,,0.00,weatherlink.com 1.10,2013-01-09 03:46:00,
2013-01-08 23:01:00,38.2,34.0,30.25,West,273,0.0,-999.0,84,-99.99,,,0.00,weatherlink.com 1.10,2013-01-09 04:01:00,
2013-01-08 23:16:00,38.3,34.0,30.24,West,273,0.0,-999.0,85,-99.99,,,0.00,weatherlink.com 1.10,2013-01-09 04:16:00,
2013-01-08 23:31:00,37.9,34.0,30.25,West,273,0.0,-999.0,85,-99.99,,,0.00,weatherlink.com 1.10,2013-01-09 04:31:00,
2013-01-08 23:46:00,37.7,34.0,30.24,West,273,0.0,-999.0,86,-99.99,,,0.00,weatherlink.com 1.10,2013-01-09 04:46:00,